sensor_id;sensor_type;location;lat;lon;timestamp;temperature;humidity
21612;DHT22;47005;52.292;13.452;2023-02-10T00:02:24;2.50;93.90
21612;DHT22;47005;52.292;13.452;2023-02-10T00:04:50;2.50;93.90
21612;DHT22;47005;52.292;13.452;2023-02-10T00:07:18;2.50;94.00
21612;DHT22;47005;52.292;13.452;2023-02-10T00:09:44;2.50;94.00
21612;DHT22;47005;52.292;13.452;2023-02-10T00:12:10;2.50;94.00
21612;DHT22;47005;52.292;13.452;2023-02-10T00:14:37;2.50;94.10
21612;DHT22;47005;52.292;13.452;2023-02-10T00:17:03;2.50;94.00
21612;DHT22;47005;52.292;13.452;2023-02-10T00:19:29;2.50;94.00
21612;DHT22;47005;52.292;13.452;2023-02-10T00:21:57;2.50;94.10
21612;DHT22;47005;52.292;13.452;2023-02-10T00:24:23;2.60;94.10
21612;DHT22;47005;52.292;13.452;2023-02-10T00:26:49;2.60;94.10
21612;DHT22;47005;52.292;13.452;2023-02-10T00:29:15;2.60;94.20
21612;DHT22;47005;52.292;13.452;2023-02-10T00:31:41;2.60;94.20
21612;DHT22;47005;52.292;13.452;2023-02-10T00:34:10;2.60;94.10
21612;DHT22;47005;52.292;13.452;2023-02-10T00:36:37;2.70;94.10
21612;DHT22;47005;52.292;13.452;2023-02-10T00:39:03;2.60;94.10
21612;DHT22;47005;52.292;13.452;2023-02-10T00:41:28;2.60;94.10
21612;DHT22;47005;52.292;13.452;2023-02-10T00:43:54;2.70;94.20
21612;DHT22;47005;52.292;13.452;2023-02-10T00:46:21;2.60;94.10
21612;DHT22;47005;52.292;13.452;2023-02-10T00:48:47;2.60;94.10
21612;DHT22;47005;52.292;13.452;2023-02-10T00:51:14;2.70;94.20
21612;DHT22;47005;52.292;13.452;2023-02-10T00:53:40;2.70;94.20
21612;DHT22;47005;52.292;13.452;2023-02-10T00:56:06;2.70;94.10
21612;DHT22;47005;52.292;13.452;2023-02-10T00:58:31;2.70;94.10
21612;DHT22;47005;52.292;13.452;2023-02-10T01:00:57;2.70;94.10
21612;DHT22;47005;52.292;13.452;2023-02-10T01:03:23;2.70;94.10
21612;DHT22;47005;52.292;13.452;2023-02-10T01:05:49;2.70;94.10
21612;DHT22;47005;52.292;13.452;2023-02-10T01:08:15;2.70;94.20
21612;DHT22;47005;52.292;13.452;2023-02-10T01:10:41;2.70;94.20
21612;DHT22;47005;52.292;13.452;2023-02-10T01:13:09;2.70;94.20
21612;DHT22;47005;52.292;13.452;2023-02-10T01:15:35;2.70;94.20
21612;DHT22;47005;52.292;13.452;2023-02-10T01:18:01;2.70;94.10
21612;DHT22;47005;52.292;13.452;2023-02-10T01:20:27;2.70;94.10
21612;DHT22;47005;52.292;13.452;2023-02-10T01:22:52;2.70;94.10
21612;DHT22;47005;52.292;13.452;2023-02-10T01:25:19;2.70;94.00
21612;DHT22;47005;52.292;13.452;2023-02-10T01:27:44;2.70;94.10
21612;DHT22;47005;52.292;13.452;2023-02-10T01:30:12;2.70;94.20
21612;DHT22;47005;52.292;13.452;2023-02-10T01:32:37;2.70;94.20
21612;DHT22;47005;52.292;13.452;2023-02-10T01:35:04;2.70;94.20
21612;DHT22;47005;52.292;13.452;2023-02-10T01:37:29;2.80;94.30
21612;DHT22;47005;52.292;13.452;2023-02-10T01:39:55;2.80;94.30
21612;DHT22;47005;52.292;13.452;2023-02-10T01:42:21;2.80;94.30
21612;DHT22;47005;52.292;13.452;2023-02-10T01:47:12;2.80;94.30
21612;DHT22;47005;52.292;13.452;2023-02-10T01:49:41;2.80;94.30
21612;DHT22;47005;52.292;13.452;2023-02-10T01:52:13;2.80;94.30
21612;DHT22;47005;52.292;13.452;2023-02-10T01:54:47;2.80;94.30
21612;DHT22;47005;52.292;13.452;2023-02-10T01:57:14;2.80;94.30
21612;DHT22;47005;52.292;13.452;2023-02-10T01:59:42;2.80;94.30
21612;DHT22;47005;52.292;13.452;2023-02-10T02:02:09;2.80;94.40
21612;DHT22;47005;52.292;13.452;2023-02-10T02:04:50;2.80;94.40
21612;DHT22;47005;52.292;13.452;2023-02-10T02:07:22;2.80;94.50
21612;DHT22;47005;52.292;13.452;2023-02-10T02:09:49;2.80;94.50
21612;DHT22;47005;52.292;13.452;2023-02-10T02:12:30;2.70;94.40
21612;DHT22;47005;52.292;13.452;2023-02-10T02:39:35;2.70;94.80
21612;DHT22;47005;52.292;13.452;2023-02-10T02:52:58;2.60;95.00
21612;DHT22;47005;52.292;13.452;2023-02-10T02:55:41;2.60;95.00
21612;DHT22;47005;52.292;13.452;2023-02-10T02:58:16;2.60;95.10
21612;DHT22;47005;52.292;13.452;2023-02-10T03:00:44;2.60;95.10
21612;DHT22;47005;52.292;13.452;2023-02-10T03:03:10;2.50;95.10
21612;DHT22;47005;52.292;13.452;2023-02-10T03:05:36;2.60;95.20
21612;DHT22;47005;52.292;13.452;2023-02-10T03:08:02;2.60;95.20
21612;DHT22;47005;52.292;13.452;2023-02-10T03:10:28;2.50;95.20
21612;DHT22;47005;52.292;13.452;2023-02-10T03:12:54;2.50;95.20
21612;DHT22;47005;52.292;13.452;2023-02-10T03:15:20;2.50;95.30
21612;DHT22;47005;52.292;13.452;2023-02-10T03:17:45;2.50;95.30
21612;DHT22;47005;52.292;13.452;2023-02-10T03:20:11;2.60;95.30
21612;DHT22;47005;52.292;13.452;2023-02-10T03:22:37;2.50;95.40
21612;DHT22;47005;52.292;13.452;2023-02-10T03:25:03;2.50;95.40
21612;DHT22;47005;52.292;13.452;2023-02-10T03:27:28;2.50;95.50
21612;DHT22;47005;52.292;13.452;2023-02-10T03:29:54;2.50;95.50
21612;DHT22;47005;52.292;13.452;2023-02-10T03:32:20;2.50;95.60
21612;DHT22;47005;52.292;13.452;2023-02-10T03:34:46;2.50;95.60
21612;DHT22;47005;52.292;13.452;2023-02-10T03:37:12;2.40;95.60
21612;DHT22;47005;52.292;13.452;2023-02-10T03:39:38;2.40;95.60
21612;DHT22;47005;52.292;13.452;2023-02-10T03:42:04;2.40;95.60
21612;DHT22;47005;52.292;13.452;2023-02-10T03:44:30;2.50;95.70
21612;DHT22;47005;52.292;13.452;2023-02-10T03:46:56;2.50;95.80
21612;DHT22;47005;52.292;13.452;2023-02-10T03:49:22;2.50;95.80
21612;DHT22;47005;52.292;13.452;2023-02-10T03:51:47;2.40;95.90
21612;DHT22;47005;52.292;13.452;2023-02-10T03:54:13;2.50;95.90
21612;DHT22;47005;52.292;13.452;2023-02-10T03:56:39;2.40;95.90
21612;DHT22;47005;52.292;13.452;2023-02-10T03:59:05;2.40;96.00
21612;DHT22;47005;52.292;13.452;2023-02-10T04:01:32;2.40;96.20
21612;DHT22;47005;52.292;13.452;2023-02-10T04:03:58;2.40;96.30
21612;DHT22;47005;52.292;13.452;2023-02-10T04:06:24;2.40;96.20
21612;DHT22;47005;52.292;13.452;2023-02-10T04:08:50;2.40;96.40
21612;DHT22;47005;52.292;13.452;2023-02-10T04:11:15;2.40;96.50
21612;DHT22;47005;52.292;13.452;2023-02-10T04:13:41;2.40;96.50
21612;DHT22;47005;52.292;13.452;2023-02-10T04:16:10;2.40;96.60
21612;DHT22;47005;52.292;13.452;2023-02-10T04:18:36;2.30;96.70
21612;DHT22;47005;52.292;13.452;2023-02-10T04:21:03;2.40;96.80
21612;DHT22;47005;52.292;13.452;2023-02-10T04:23:29;2.40;97.00
21612;DHT22;47005;52.292;13.452;2023-02-10T04:25:56;2.40;97.10
21612;DHT22;47005;52.292;13.452;2023-02-10T04:28:22;2.30;97.10
21612;DHT22;47005;52.292;13.452;2023-02-10T04:30:55;2.40;97.10
21612;DHT22;47005;52.292;13.452;2023-02-10T04:33:21;2.30;97.20
21612;DHT22;47005;52.292;13.452;2023-02-10T04:35:48;2.30;97.40
21612;DHT22;47005;52.292;13.452;2023-02-10T04:38:14;2.30;97.40
21612;DHT22;47005;52.292;13.452;2023-02-10T04:40:39;2.30;97.50
21612;DHT22;47005;52.292;13.452;2023-02-10T04:43:05;2.30;97.50
21612;DHT22;47005;52.292;13.452;2023-02-10T04:45:31;2.30;97.50
21612;DHT22;47005;52.292;13.452;2023-02-10T04:47:57;2.30;97.50
21612;DHT22;47005;52.292;13.452;2023-02-10T04:50:23;2.30;97.50
21612;DHT22;47005;52.292;13.452;2023-02-10T04:52:48;2.30;97.50
21612;DHT22;47005;52.292;13.452;2023-02-10T04:55:14;2.30;97.60
21612;DHT22;47005;52.292;13.452;2023-02-10T04:57:40;2.30;97.60
21612;DHT22;47005;52.292;13.452;2023-02-10T05:00:06;2.30;97.70
21612;DHT22;47005;52.292;13.452;2023-02-10T05:02:32;2.30;97.90
21612;DHT22;47005;52.292;13.452;2023-02-10T05:04:57;2.30;97.90
21612;DHT22;47005;52.292;13.452;2023-02-10T05:07:23;2.40;98.00
21612;DHT22;47005;52.292;13.452;2023-02-10T05:09:49;2.40;98.00
21612;DHT22;47005;52.292;13.452;2023-02-10T05:12:15;2.40;98.40
21612;DHT22;47005;52.292;13.452;2023-02-10T05:14:40;2.40;98.00
21612;DHT22;47005;52.292;13.452;2023-02-10T05:17:06;2.40;98.10
21612;DHT22;47005;52.292;13.452;2023-02-10T05:19:31;2.40;98.20
21612;DHT22;47005;52.292;13.452;2023-02-10T05:21:57;2.40;98.20
21612;DHT22;47005;52.292;13.452;2023-02-10T05:24:23;2.50;98.30
21612;DHT22;47005;52.292;13.452;2023-02-10T05:26:48;2.60;98.30
21612;DHT22;47005;52.292;13.452;2023-02-10T05:29:14;2.50;98.20
21612;DHT22;47005;52.292;13.452;2023-02-10T05:31:40;2.50;98.70
21612;DHT22;47005;52.292;13.452;2023-02-10T05:34:06;2.50;98.20
21612;DHT22;47005;52.292;13.452;2023-02-10T05:36:32;2.50;98.30
21612;DHT22;47005;52.292;13.452;2023-02-10T05:38:58;2.50;98.30
21612;DHT22;47005;52.292;13.452;2023-02-10T05:41:42;2.60;98.50
21612;DHT22;47005;52.292;13.452;2023-02-10T05:44:08;2.60;98.50
21612;DHT22;47005;52.292;13.452;2023-02-10T05:46:34;2.60;98.50
21612;DHT22;47005;52.292;13.452;2023-02-10T05:49:00;2.60;98.40
21612;DHT22;47005;52.292;13.452;2023-02-10T05:51:25;2.60;98.50
21612;DHT22;47005;52.292;13.452;2023-02-10T05:53:51;2.60;98.60
21612;DHT22;47005;52.292;13.452;2023-02-10T05:56:19;2.60;98.60
21612;DHT22;47005;52.292;13.452;2023-02-10T05:58:44;2.60;98.60
21612;DHT22;47005;52.292;13.452;2023-02-10T06:01:11;2.60;98.60
21612;DHT22;47005;52.292;13.452;2023-02-10T06:03:37;2.60;98.60
21612;DHT22;47005;52.292;13.452;2023-02-10T06:06:03;2.60;98.60
21612;DHT22;47005;52.292;13.452;2023-02-10T06:08:28;2.60;98.60
21612;DHT22;47005;52.292;13.452;2023-02-10T06:10:54;2.60;98.50
21612;DHT22;47005;52.292;13.452;2023-02-10T06:13:20;2.60;98.60
21612;DHT22;47005;52.292;13.452;2023-02-10T06:15:46;2.70;98.70
21612;DHT22;47005;52.292;13.452;2023-02-10T06:18:12;2.70;98.70
21612;DHT22;47005;52.292;13.452;2023-02-10T06:20:37;2.70;98.90
21612;DHT22;47005;52.292;13.452;2023-02-10T06:23:03;2.60;98.80
21612;DHT22;47005;52.292;13.452;2023-02-10T06:25:28;2.70;98.90
21612;DHT22;47005;52.292;13.452;2023-02-10T06:27:54;2.60;99.00
21612;DHT22;47005;52.292;13.452;2023-02-10T06:30:20;2.60;98.90
21612;DHT22;47005;52.292;13.452;2023-02-10T06:32:45;2.70;98.90
21612;DHT22;47005;52.292;13.452;2023-02-10T06:35:11;2.70;98.90
21612;DHT22;47005;52.292;13.452;2023-02-10T06:37:37;2.70;98.90
21612;DHT22;47005;52.292;13.452;2023-02-10T06:40:04;2.70;99.00
21612;DHT22;47005;52.292;13.452;2023-02-10T06:42:30;2.70;99.30
21612;DHT22;47005;52.292;13.452;2023-02-10T06:44:56;2.70;99.20
21612;DHT22;47005;52.292;13.452;2023-02-10T06:47:21;2.70;99.10
21612;DHT22;47005;52.292;13.452;2023-02-10T06:49:47;2.60;99.10
21612;DHT22;47005;52.292;13.452;2023-02-10T06:52:13;2.60;99.10
21612;DHT22;47005;52.292;13.452;2023-02-10T06:54:38;2.70;99.10
21612;DHT22;47005;52.292;13.452;2023-02-10T06:57:04;2.70;99.10
21612;DHT22;47005;52.292;13.452;2023-02-10T06:59:32;2.70;99.30
21612;DHT22;47005;52.292;13.452;2023-02-10T07:01:57;2.70;99.30
21612;DHT22;47005;52.292;13.452;2023-02-10T07:04:30;2.70;99.30
21612;DHT22;47005;52.292;13.452;2023-02-10T07:06:57;2.70;99.30
21612;DHT22;47005;52.292;13.452;2023-02-10T07:09:23;2.70;99.40
21612;DHT22;47005;52.292;13.452;2023-02-10T07:11:49;2.80;99.50
21612;DHT22;47005;52.292;13.452;2023-02-10T07:14:16;2.70;99.50
21612;DHT22;47005;52.292;13.452;2023-02-10T07:16:41;2.70;99.50
21612;DHT22;47005;52.292;13.452;2023-02-10T07:19:07;2.70;99.70
21612;DHT22;47005;52.292;13.452;2023-02-10T07:21:33;2.80;99.70
21612;DHT22;47005;52.292;13.452;2023-02-10T07:23:59;2.70;99.80
21612;DHT22;47005;52.292;13.452;2023-02-10T07:26:27;2.70;99.70
21612;DHT22;47005;52.292;13.452;2023-02-10T07:28:52;2.70;99.90
21612;DHT22;47005;52.292;13.452;2023-02-10T07:31:18;2.70;99.90
21612;DHT22;47005;52.292;13.452;2023-02-10T07:33:44;2.80;99.80
21612;DHT22;47005;52.292;13.452;2023-02-10T07:36:10;2.80;99.90
21612;DHT22;47005;52.292;13.452;2023-02-10T07:38:35;2.80;99.90
21612;DHT22;47005;52.292;13.452;2023-02-10T07:41:03;2.80;99.90
21612;DHT22;47005;52.292;13.452;2023-02-10T07:43:29;2.80;99.80
21612;DHT22;47005;52.292;13.452;2023-02-10T07:45:55;2.80;99.80
21612;DHT22;47005;52.292;13.452;2023-02-10T07:48:21;2.80;99.90
21612;DHT22;47005;52.292;13.452;2023-02-10T07:50:48;2.90;99.90
21612;DHT22;47005;52.292;13.452;2023-02-10T07:53:17;2.80;99.90
21612;DHT22;47005;52.292;13.452;2023-02-10T07:55:43;2.90;99.90
21612;DHT22;47005;52.292;13.452;2023-02-10T07:58:09;2.90;99.90
21612;DHT22;47005;52.292;13.452;2023-02-10T08:00:35;2.90;99.90
21612;DHT22;47005;52.292;13.452;2023-02-10T08:03:01;2.90;99.90
21612;DHT22;47005;52.292;13.452;2023-02-10T08:05:26;2.90;99.90
21612;DHT22;47005;52.292;13.452;2023-02-10T08:07:54;2.90;99.90
21612;DHT22;47005;52.292;13.452;2023-02-10T08:10:19;3.00;99.90
21612;DHT22;47005;52.292;13.452;2023-02-10T08:12:46;3.00;99.90
21612;DHT22;47005;52.292;13.452;2023-02-10T08:15:12;3.00;99.90
21612;DHT22;47005;52.292;13.452;2023-02-10T08:17:39;3.10;99.90
21612;DHT22;47005;52.292;13.452;2023-02-10T08:20:06;3.10;99.90
21612;DHT22;47005;52.292;13.452;2023-02-10T08:22:33;3.10;99.90
21612;DHT22;47005;52.292;13.452;2023-02-10T08:24:59;3.10;99.90
21612;DHT22;47005;52.292;13.452;2023-02-10T08:27:25;3.20;99.90
21612;DHT22;47005;52.292;13.452;2023-02-10T08:29:51;3.30;99.90
21612;DHT22;47005;52.292;13.452;2023-02-10T08:32:16;3.30;99.90
21612;DHT22;47005;52.292;13.452;2023-02-10T08:34:47;3.30;99.90
21612;DHT22;47005;52.292;13.452;2023-02-10T08:37:14;3.30;99.90
21612;DHT22;47005;52.292;13.452;2023-02-10T08:39:40;3.40;99.90
21612;DHT22;47005;52.292;13.452;2023-02-10T08:42:06;3.40;99.90
21612;DHT22;47005;52.292;13.452;2023-02-10T08:44:32;3.50;99.90
21612;DHT22;47005;52.292;13.452;2023-02-10T08:46:58;3.50;99.90
21612;DHT22;47005;52.292;13.452;2023-02-10T08:49:23;3.50;99.90
21612;DHT22;47005;52.292;13.452;2023-02-10T08:51:53;3.50;99.90
21612;DHT22;47005;52.292;13.452;2023-02-10T08:54:19;3.60;99.90
21612;DHT22;47005;52.292;13.452;2023-02-10T08:56:46;3.60;99.90
21612;DHT22;47005;52.292;13.452;2023-02-10T08:59:11;3.70;99.90
21612;DHT22;47005;52.292;13.452;2023-02-10T09:01:37;3.70;99.90
21612;DHT22;47005;52.292;13.452;2023-02-10T09:04:03;3.70;99.90
21612;DHT22;47005;52.292;13.452;2023-02-10T09:06:34;3.80;99.90
21612;DHT22;47005;52.292;13.452;2023-02-10T09:09:05;3.80;99.90
21612;DHT22;47005;52.292;13.452;2023-02-10T09:11:31;3.90;99.90
21612;DHT22;47005;52.292;13.452;2023-02-10T09:13:57;3.90;99.90
21612;DHT22;47005;52.292;13.452;2023-02-10T09:16:23;3.90;99.90
21612;DHT22;47005;52.292;13.452;2023-02-10T09:18:49;3.90;99.90
21612;DHT22;47005;52.292;13.452;2023-02-10T09:21:15;4.00;99.90
21612;DHT22;47005;52.292;13.452;2023-02-10T09:23:40;4.00;99.90
21612;DHT22;47005;52.292;13.452;2023-02-10T09:26:06;4.00;99.90
21612;DHT22;47005;52.292;13.452;2023-02-10T09:28:32;4.00;99.90
21612;DHT22;47005;52.292;13.452;2023-02-10T09:30:57;4.00;99.90
21612;DHT22;47005;52.292;13.452;2023-02-10T09:33:23;4.10;99.90
21612;DHT22;47005;52.292;13.452;2023-02-10T09:35:49;4.10;99.90
21612;DHT22;47005;52.292;13.452;2023-02-10T09:38:14;4.20;99.90
21612;DHT22;47005;52.292;13.452;2023-02-10T09:54:50;4.40;99.90
21612;DHT22;47005;52.292;13.452;2023-02-10T09:57:20;4.40;99.90
21612;DHT22;47005;52.292;13.452;2023-02-10T09:59:48;4.50;99.90
21612;DHT22;47005;52.292;13.452;2023-02-10T10:02:21;4.50;99.90
21612;DHT22;47005;52.292;13.452;2023-02-10T10:04:50;4.50;99.90
21612;DHT22;47005;52.292;13.452;2023-02-10T10:07:26;4.60;99.90
21612;DHT22;47005;52.292;13.452;2023-02-10T10:10:15;4.60;99.90
21612;DHT22;47005;52.292;13.452;2023-02-10T10:12:42;4.70;99.90
21612;DHT22;47005;52.292;13.452;2023-02-10T10:15:18;4.70;99.90
21612;DHT22;47005;52.292;13.452;2023-02-10T10:31:18;4.90;99.90
21612;DHT22;47005;52.292;13.452;2023-02-10T10:33:51;4.90;99.90
21612;DHT22;47005;52.292;13.452;2023-02-10T10:36:28;5.00;99.90
21612;DHT22;47005;52.292;13.452;2023-02-10T10:39:30;5.00;99.90
21612;DHT22;47005;52.292;13.452;2023-02-10T10:42:01;5.00;99.90
21612;DHT22;47005;52.292;13.452;2023-02-10T10:44:30;5.10;99.90
21612;DHT22;47005;52.292;13.452;2023-02-10T10:47:06;5.10;99.90
21612;DHT22;47005;52.292;13.452;2023-02-10T10:49:36;5.10;99.90
21612;DHT22;47005;52.292;13.452;2023-02-10T10:52:02;5.20;99.90
21612;DHT22;47005;52.292;13.452;2023-02-10T10:54:28;5.20;99.90
21612;DHT22;47005;52.292;13.452;2023-02-10T10:57:04;5.30;99.90
21612;DHT22;47005;52.292;13.452;2023-02-10T10:59:34;5.30;99.90
21612;DHT22;47005;52.292;13.452;2023-02-10T11:02:18;5.30;99.90
21612;DHT22;47005;52.292;13.452;2023-02-10T11:04:45;5.30;99.90
21612;DHT22;47005;52.292;13.452;2023-02-10T11:07:18;5.30;99.90
21612;DHT22;47005;52.292;13.452;2023-02-10T11:09:52;5.30;99.90
21612;DHT22;47005;52.292;13.452;2023-02-10T11:12:48;5.40;99.90
21612;DHT22;47005;52.292;13.452;2023-02-10T11:15:34;5.50;99.90
21612;DHT22;47005;52.292;13.452;2023-02-10T11:18:06;5.50;99.90
21612;DHT22;47005;52.292;13.452;2023-02-10T11:20:35;5.50;99.90
21612;DHT22;47005;52.292;13.452;2023-02-10T11:23:13;5.50;99.90
21612;DHT22;47005;52.292;13.452;2023-02-10T11:25:39;5.50;99.90
21612;DHT22;47005;52.292;13.452;2023-02-10T11:28:15;5.60;99.90
21612;DHT22;47005;52.292;13.452;2023-02-10T11:30:41;5.60;99.90
21612;DHT22;47005;52.292;13.452;2023-02-10T11:33:22;5.60;99.90
21612;DHT22;47005;52.292;13.452;2023-02-10T11:36:05;5.60;99.90
21612;DHT22;47005;52.292;13.452;2023-02-10T11:38:32;5.60;99.90
21612;DHT22;47005;52.292;13.452;2023-02-10T11:41:04;5.60;99.90
21612;DHT22;47005;52.292;13.452;2023-02-10T11:43:31;5.60;99.90
21612;DHT22;47005;52.292;13.452;2023-02-10T11:46:00;5.60;99.90
21612;DHT22;47005;52.292;13.452;2023-02-10T11:48:28;5.60;99.90
21612;DHT22;47005;52.292;13.452;2023-02-10T11:51:15;5.60;99.90
21612;DHT22;47005;52.292;13.452;2023-02-10T11:53:43;5.70;99.90
21612;DHT22;47005;52.292;13.452;2023-02-10T11:56:26;5.70;99.90
21612;DHT22;47005;52.292;13.452;2023-02-10T11:59:26;5.70;99.90
21612;DHT22;47005;52.292;13.452;2023-02-10T12:01:57;5.70;99.90
21612;DHT22;47005;52.292;13.452;2023-02-10T12:07:46;5.80;99.90
21612;DHT22;47005;52.292;13.452;2023-02-10T12:10:33;5.80;99.90
21612;DHT22;47005;52.292;13.452;2023-02-10T12:19:01;5.90;99.90
21612;DHT22;47005;52.292;13.452;2023-02-10T12:27:28;5.90;99.90
21612;DHT22;47005;52.292;13.452;2023-02-10T12:30:07;6.00;99.90
21612;DHT22;47005;52.292;13.452;2023-02-10T12:38:22;6.00;99.90
21612;DHT22;47005;52.292;13.452;2023-02-10T12:56:33;6.20;99.90
21612;DHT22;47005;52.292;13.452;2023-02-10T12:59:10;6.20;99.90
21612;DHT22;47005;52.292;13.452;2023-02-10T13:01:41;6.30;99.90
21612;DHT22;47005;52.292;13.452;2023-02-10T13:04:31;6.30;99.90
21612;DHT22;47005;52.292;13.452;2023-02-10T13:07:00;6.30;99.90
21612;DHT22;47005;52.292;13.452;2023-02-10T13:09:39;6.40;99.90
21612;DHT22;47005;52.292;13.452;2023-02-10T13:12:31;6.40;99.90
21612;DHT22;47005;52.292;13.452;2023-02-10T13:15:04;6.50;99.90
21612;DHT22;47005;52.292;13.452;2023-02-10T13:17:41;6.50;99.90
21612;DHT22;47005;52.292;13.452;2023-02-10T13:34:40;6.60;99.90
21612;DHT22;47005;52.292;13.452;2023-02-10T13:39:59;6.60;99.90
21612;DHT22;47005;52.292;13.452;2023-02-10T13:42:36;6.70;99.90
21612;DHT22;47005;52.292;13.452;2023-02-10T13:52:56;6.70;99.90
21612;DHT22;47005;52.292;13.452;2023-02-10T14:00:46;6.80;99.90
21612;DHT22;47005;52.292;13.452;2023-02-10T14:11:00;7.00;99.80
21612;DHT22;47005;52.292;13.452;2023-02-10T14:13:33;7.00;99.60
21612;DHT22;47005;52.292;13.452;2023-02-10T14:18:45;7.10;99.60
21612;DHT22;47005;52.292;13.452;2023-02-10T14:21:15;7.10;99.30
21612;DHT22;47005;52.292;13.452;2023-02-10T14:23:55;7.10;99.30
21612;DHT22;47005;52.292;13.452;2023-02-10T14:26:30;7.20;99.40
21612;DHT22;47005;52.292;13.452;2023-02-10T14:28:58;7.20;99.20
21612;DHT22;47005;52.292;13.452;2023-02-10T14:31:27;7.10;99.00
21612;DHT22;47005;52.292;13.452;2023-02-10T14:33:56;7.10;98.90
21612;DHT22;47005;52.292;13.452;2023-02-10T14:36:22;7.10;99.20
21612;DHT22;47005;52.292;13.452;2023-02-10T14:39:00;7.10;99.10
21612;DHT22;47005;52.292;13.452;2023-02-10T14:41:31;7.00;99.20
21612;DHT22;47005;52.292;13.452;2023-02-10T14:43:58;7.00;99.20
21612;DHT22;47005;52.292;13.452;2023-02-10T14:46:26;7.00;99.10
21612;DHT22;47005;52.292;13.452;2023-02-10T14:48:59;7.10;99.40
21612;DHT22;47005;52.292;13.452;2023-02-10T14:51:27;7.10;99.50
21612;DHT22;47005;52.292;13.452;2023-02-10T14:53:53;7.00;99.40
21612;DHT22;47005;52.292;13.452;2023-02-10T14:56:25;7.00;99.30
21612;DHT22;47005;52.292;13.452;2023-02-10T14:58:52;7.00;99.30
21612;DHT22;47005;52.292;13.452;2023-02-10T15:03:44;7.00;99.30
21612;DHT22;47005;52.292;13.452;2023-02-10T15:06:15;7.00;99.20
21612;DHT22;47005;52.292;13.452;2023-02-10T15:11:20;7.00;99.50
21612;DHT22;47005;52.292;13.452;2023-02-10T15:14:12;7.00;99.40
21612;DHT22;47005;52.292;13.452;2023-02-10T15:16:39;6.90;99.40
21612;DHT22;47005;52.292;13.452;2023-02-10T15:19:04;6.90;99.50
21612;DHT22;47005;52.292;13.452;2023-02-10T15:21:35;6.90;99.50
21612;DHT22;47005;52.292;13.452;2023-02-10T15:24:28;6.90;99.50
21612;DHT22;47005;52.292;13.452;2023-02-10T15:26:54;6.90;99.40
21612;DHT22;47005;52.292;13.452;2023-02-10T15:29:20;6.80;99.50
21612;DHT22;47005;52.292;13.452;2023-02-10T15:31:59;6.80;99.60
21612;DHT22;47005;52.292;13.452;2023-02-10T15:34:27;6.80;99.60
21612;DHT22;47005;52.292;13.452;2023-02-10T15:37:02;6.80;99.60
21612;DHT22;47005;52.292;13.452;2023-02-10T15:39:36;6.80;99.60
21612;DHT22;47005;52.292;13.452;2023-02-10T15:44:38;6.70;99.60
21612;DHT22;47005;52.292;13.452;2023-02-10T15:49:47;6.70;99.70
21612;DHT22;47005;52.292;13.452;2023-02-10T15:52:19;6.70;99.70
21612;DHT22;47005;52.292;13.452;2023-02-10T15:54:46;6.60;99.70
21612;DHT22;47005;52.292;13.452;2023-02-10T15:57:15;6.60;99.80
21612;DHT22;47005;52.292;13.452;2023-02-10T15:59:41;6.60;99.80
21612;DHT22;47005;52.292;13.452;2023-02-10T16:02:11;6.50;99.70
21612;DHT22;47005;52.292;13.452;2023-02-10T16:04:37;6.50;99.80
21612;DHT22;47005;52.292;13.452;2023-02-10T16:07:04;6.40;99.70
21612;DHT22;47005;52.292;13.452;2023-02-10T16:09:31;6.40;99.70
21612;DHT22;47005;52.292;13.452;2023-02-10T16:12:00;6.40;99.70
21612;DHT22;47005;52.292;13.452;2023-02-10T16:14:26;6.30;99.70
21612;DHT22;47005;52.292;13.452;2023-02-10T16:16:54;6.30;99.70
21612;DHT22;47005;52.292;13.452;2023-02-10T16:19:23;6.30;99.70
21612;DHT22;47005;52.292;13.452;2023-02-10T16:21:50;6.20;99.70
21612;DHT22;47005;52.292;13.452;2023-02-10T16:24:21;6.20;99.70
21612;DHT22;47005;52.292;13.452;2023-02-10T16:26:47;6.20;99.80
21612;DHT22;47005;52.292;13.452;2023-02-10T16:29:18;6.20;99.80
21612;DHT22;47005;52.292;13.452;2023-02-10T16:31:44;6.10;99.70
21612;DHT22;47005;52.292;13.452;2023-02-10T16:34:11;6.10;99.80
21612;DHT22;47005;52.292;13.452;2023-02-10T16:36:38;6.00;99.70
21612;DHT22;47005;52.292;13.452;2023-02-10T16:39:05;6.00;99.80
21612;DHT22;47005;52.292;13.452;2023-02-10T16:41:31;6.00;99.90
21612;DHT22;47005;52.292;13.452;2023-02-10T16:43:56;5.90;99.90
21612;DHT22;47005;52.292;13.452;2023-02-10T16:46:22;5.90;99.80
21612;DHT22;47005;52.292;13.452;2023-02-10T16:48:47;5.80;99.80
21612;DHT22;47005;52.292;13.452;2023-02-10T16:51:13;5.80;99.80
21612;DHT22;47005;52.292;13.452;2023-02-10T16:53:39;5.80;99.80
21612;DHT22;47005;52.292;13.452;2023-02-10T16:56:05;5.80;99.70
21612;DHT22;47005;52.292;13.452;2023-02-10T16:58:35;5.80;99.80
21612;DHT22;47005;52.292;13.452;2023-02-10T17:01:00;5.70;99.80
21612;DHT22;47005;52.292;13.452;2023-02-10T17:03:26;5.70;99.90
21612;DHT22;47005;52.292;13.452;2023-02-10T17:05:52;5.60;99.80
21612;DHT22;47005;52.292;13.452;2023-02-10T17:08:17;5.60;99.70
21612;DHT22;47005;52.292;13.452;2023-02-10T17:10:43;5.60;99.80
21612;DHT22;47005;52.292;13.452;2023-02-10T17:13:09;5.60;99.80
21612;DHT22;47005;52.292;13.452;2023-02-10T17:15:34;5.50;99.80
21612;DHT22;47005;52.292;13.452;2023-02-10T17:18:00;5.50;99.90
21612;DHT22;47005;52.292;13.452;2023-02-10T17:20:29;5.50;99.90
21612;DHT22;47005;52.292;13.452;2023-02-10T17:22:56;5.50;99.90
21612;DHT22;47005;52.292;13.452;2023-02-10T17:25:23;5.50;99.90
21612;DHT22;47005;52.292;13.452;2023-02-10T17:27:50;5.40;99.80
21612;DHT22;47005;52.292;13.452;2023-02-10T17:30:19;5.40;99.80
21612;DHT22;47005;52.292;13.452;2023-02-10T17:32:46;5.40;99.90
21612;DHT22;47005;52.292;13.452;2023-02-10T17:35:13;5.30;99.90
21612;DHT22;47005;52.292;13.452;2023-02-10T17:37:40;5.30;99.90
21612;DHT22;47005;52.292;13.452;2023-02-10T17:40:09;5.30;99.90
21612;DHT22;47005;52.292;13.452;2023-02-10T17:42:40;5.20;99.90
21612;DHT22;47005;52.292;13.452;2023-02-10T17:45:11;5.30;99.90
21612;DHT22;47005;52.292;13.452;2023-02-10T17:47:36;5.20;99.90
21612;DHT22;47005;52.292;13.452;2023-02-10T17:50:02;5.20;99.90
21612;DHT22;47005;52.292;13.452;2023-02-10T17:52:28;5.30;99.90
21612;DHT22;47005;52.292;13.452;2023-02-10T17:54:54;5.20;99.90
21612;DHT22;47005;52.292;13.452;2023-02-10T17:57:19;5.20;99.90
21612;DHT22;47005;52.292;13.452;2023-02-10T17:59:45;5.20;99.90
21612;DHT22;47005;52.292;13.452;2023-02-10T18:02:11;5.20;99.90
21612;DHT22;47005;52.292;13.452;2023-02-10T18:04:39;5.10;99.90
21612;DHT22;47005;52.292;13.452;2023-02-10T18:07:04;5.10;99.90
21612;DHT22;47005;52.292;13.452;2023-02-10T18:09:30;5.10;99.90
21612;DHT22;47005;52.292;13.452;2023-02-10T18:11:56;5.10;99.90